Map

Track Data

SID SEASON NUMBER BASIN SUBBASIN NAME ISO_TIME NATURE LAT LON WMO_WIND WMO_PRES WMO_AGENCY TRACK_TYPE DIST2LAND LANDFALL IFLAG USA_AGENCY USA_ATCF_ID USA_LAT USA_LON USA_RECORD USA_STATUS USA_WIND USA_PRES USA_SSHS USA_R34_NE USA_R34_SE USA_R34_SW USA_R34_NW USA_R50_NE USA_R50_SE USA_R50_SW USA_R50_NW USA_R64_NE USA_R64_SE USA_R64_SW USA_R64_NW USA_POCI USA_ROCI USA_RMW USA_EYE TOKYO_LAT TOKYO_LON TOKYO_GRADE TOKYO_WIND TOKYO_PRES TOKYO_R50_DIR TOKYO_R50_LONG TOKYO_R50_SHORT TOKYO_R30_DIR TOKYO_R30_LONG TOKYO_R30_SHORT TOKYO_LAND CMA_LAT CMA_LON CMA_CAT CMA_WIND CMA_PRES HKO_LAT HKO_LON HKO_CAT HKO_WIND HKO_PRES NEWDELHI_LAT NEWDELHI_LON NEWDELHI_GRADE NEWDELHI_WIND NEWDELHI_PRES NEWDELHI_CI NEWDELHI_DP NEWDELHI_POCI REUNION_LAT REUNION_LON REUNION_TYPE REUNION_WIND REUNION_PRES REUNION_TNUM REUNION_CI REUNION_RMW REUNION_R34_NE REUNION_R34_SE REUNION_R34_SW REUNION_R34_NW REUNION_R50_NE REUNION_R50_SE REUNION_R50_SW REUNION_R50_NW REUNION_R64_NE REUNION_R64_SE REUNION_R64_SW REUNION_R64_NW BOM_LAT BOM_LON BOM_TYPE BOM_WIND BOM_PRES BOM_TNUM BOM_CI BOM_RMW BOM_R34_NE BOM_R34_SE BOM_R34_SW BOM_R34_NW BOM_R50_NE BOM_R50_SE BOM_R50_SW BOM_R50_NW BOM_R64_NE BOM_R64_SE BOM_R64_SW BOM_R64_NW BOM_ROCI BOM_POCI BOM_EYE BOM_POS_METHOD BOM_PRES_METHOD NADI_LAT NADI_LON NADI_CAT NADI_WIND NADI_PRES WELLINGTON_LAT WELLINGTON_LON WELLINGTON_WIND WELLINGTON_PRES DS824_LAT DS824_LON DS824_STAGE DS824_WIND DS824_PRES TD9636_LAT TD9636_LON TD9636_STAGE TD9636_WIND TD9636_PRES TD9635_LAT TD9635_LON TD9635_WIND TD9635_PRES TD9635_ROCI NEUMANN_LAT NEUMANN_LON NEUMANN_CLASS NEUMANN_WIND NEUMANN_PRES MLC_LAT MLC_LON MLC_CLASS MLC_WIND MLC_PRES USA_GUST BOM_GUST BOM_GUST_PER REUNION_GUST REUNION_GUST_PER USA_SEAHGT USA_SEARAD_NE USA_SEARAD_SE USA_SEARAD_SW USA_SEARAD_NW STORM_SPEED STORM_DIR
2021198N21134 2021 44 WP MM IN-FA 2021-07-17 00:00:00 NR 20.5000 133.500 PROVISIONAL 1197 1168 O_____________ tcvitals WP092021 20.5000 133.500 29 1000 -1 1004 130 50 7 336
2021198N21134 2021 44 WP MM IN-FA 2021-07-17 03:00:00 NR 20.8373 133.339 PROVISIONAL 1168 1122 P_____________ WP092021 20.8373 133.339 -1 7 336
2021198N21134 2021 44 WP MM IN-FA 2021-07-17 06:00:00 NR 21.1709 133.179 PROVISIONAL 1122 1085 P_____________ WP092021 21.1709 133.179 -1 7 336
2021198N21134 2021 44 WP MM IN-FA 2021-07-17 09:00:00 NR 21.4974 133.021 PROVISIONAL 1085 1050 P_____________ WP092021 21.4974 133.021 -1 7 336
2021198N21134 2021 44 WP MM IN-FA 2021-07-17 12:00:00 NR 21.8133 132.866 PROVISIONAL 1050 1013 P_____________ WP092021 21.8133 132.866 -1 7 335
2021198N21134 2021 44 WP MM IN-FA 2021-07-17 15:00:00 NR 22.1149 132.715 PROVISIONAL 1013 978 P_____________ WP092021 22.1149 132.715 -1 7 335
2021198N21134 2021 44 WP MM IN-FA 2021-07-17 18:00:00 NR 22.3989 132.569 PROVISIONAL 978 953 P_____________ WP092021 22.3989 132.569 -1 6 334
2021198N21134 2021 44 WP MM IN-FA 2021-07-17 21:00:00 NR 22.6618 132.430 PROVISIONAL 942 918 P_____________ WP092021 22.6618 132.430 -1 6 334
2021198N21134 2021 44 WP MM IN-FA 2021-07-18 00:00:00 NR 22.9000 132.300 PROVISIONAL 918 894 O_____________ tcvitals WP092021 22.9000 132.300 35 998 0 60 60 55 55 1003 160 60 5 333
2021198N21134 2021 44 WP MM IN-FA 2021-07-18 03:00:00 NR 23.1111 132.179 PROVISIONAL 894 870 P_____________ WP092021 23.1111 132.179 -1 5 332
2021198N21134 2021 44 WP MM IN-FA 2021-07-18 06:00:00 NR 23.2965 132.066 PROVISIONAL 870 847 P_____________ WP092021 23.2965 132.066 -1 4 330
2021198N21134 2021 44 WP MM IN-FA 2021-07-18 09:00:00 NR 23.4585 131.961 PROVISIONAL 847 834 P_____________ WP092021 23.4585 131.961 -1 4 328
2021198N21134 2021 44 WP MM IN-FA 2021-07-18 12:00:00 NR 23.5995 131.861 PROVISIONAL 834 822 P_____________ WP092021 23.5995 131.861 -1 3 326
2021198N21134 2021 44 WP MM IN-FA 2021-07-18 15:00:00 NR 23.7219 131.767 PROVISIONAL 822 810 P_____________ WP092021 23.7219 131.767 -1 3 324
2021198N21134 2021 44 WP MM IN-FA 2021-07-18 18:00:00 NR 23.8278 131.676 PROVISIONAL 810 797 P_____________ WP092021 23.8278 131.676 -1 3 321
2021198N21134 2021 44 WP MM IN-FA 2021-07-18 21:00:00 NR 23.9198 131.587 PROVISIONAL 797 785 P_____________ WP092021 23.9198 131.587 -1 2 316
2021198N21134 2021 44 WP MM IN-FA 2021-07-19 00:00:00 NR 24.0000 131.500 PROVISIONAL 785 774 O_____________ tcvitals WP092021 24.0000 131.500 51 984 0 145 130 70 95 1001 155 30 2 324
2021198N21134 2021 44 WP MM IN-FA 2021-07-19 03:00:00 NR 24.0952 131.450 PROVISIONAL 773 762 P_____________ WP092021 24.0952 131.450 -1 2 334
2021198N21134 2021 44 WP MM IN-FA 2021-07-19 06:00:00 NR 24.1773 131.407 PROVISIONAL 762 762 P_____________ WP092021 24.1773 131.407 -1 2 331
2021198N21134 2021 44 WP MM IN-FA 2021-07-19 09:00:00 NR 24.2463 131.363 PROVISIONAL 762 750 P_____________ WP092021 24.2463 131.363 -1 2 325
2021198N21134 2021 44 WP MM IN-FA 2021-07-19 12:00:00 NR 24.3024 131.307 PROVISIONAL 750 749 P_____________ WP092021 24.3024 131.307 -1 2 311
2021198N21134 2021 44 WP MM IN-FA 2021-07-19 15:00:00 NR 24.3458 131.233 PROVISIONAL 749 738 P_____________ WP092021 24.3458 131.233 -1 2 294
2021198N21134 2021 44 WP MM IN-FA 2021-07-19 18:00:00 NR 24.3765 131.129 PROVISIONAL 738 737 P_____________ WP092021 24.3765 131.129 -1 2 282
2021198N21134 2021 44 WP MM IN-FA 2021-07-19 21:00:00 NR 24.3946 130.988 PROVISIONAL 737 737 P_____________ WP092021 24.3946 130.988 -1 3 275
2021198N21134 2021 44 WP MM IN-FA 2021-07-20 00:00:00 NR 24.4000 130.800 PROVISIONAL 737 736 O_____________ tcvitals WP092021 24.4000 130.800 60 975 0 185 155 90 180 1000 160 25 4 272
2021198N21134 2021 44 WP MM IN-FA 2021-07-20 03:00:00 NR 24.4060 130.521 PROVISIONAL 737 737 P_____________ WP092021 24.4060 130.521 -1 6 270
2021198N21134 2021 44 WP MM IN-FA 2021-07-20 06:00:00 NR 24.3984 130.192 PROVISIONAL 738 738 P_____________ WP092021 24.3984 130.192 -1 6 267
2021198N21134 2021 44 WP MM IN-FA 2021-07-20 09:00:00 NR 24.3775 129.828 PROVISIONAL 742 742 P_____________ WP092021 24.3775 129.828 -1 7 265
2021198N21134 2021 44 WP MM IN-FA 2021-07-20 12:00:00 NR 24.3440 129.440 PROVISIONAL 751 721 P_____________ WP092021 24.3440 129.440 -1 7 264
2021198N21134 2021 44 WP MM IN-FA 2021-07-20 15:00:00 NR 24.2986 129.040 PROVISIONAL 711 681 P_____________ WP092021 24.2986 129.040 -1 7 262
2021198N21134 2021 44 WP MM IN-FA 2021-07-20 18:00:00 NR 24.2421 128.642 PROVISIONAL 672 642 P_____________ WP092021 24.2421 128.642 -1 7 260
2021198N21134 2021 44 WP MM IN-FA 2021-07-20 21:00:00 NR 24.1756 128.258 PROVISIONAL 642 604 P_____________ WP092021 24.1756 128.258 -1 7 258
2021198N21134 2021 44 WP MM IN-FA 2021-07-21 00:00:00 NR 24.1000 127.900 PROVISIONAL 604 577 O_____________ tcvitals WP092021 24.1000 127.900 93 953 2 195 126 135 195 1004 380 17 6 253
2021198N21134 2021 44 WP MM IN-FA 2021-07-21 03:00:00 NR 23.9920 127.592 PROVISIONAL 577 550 P_____________ WP092021 23.9920 127.592 -1 6 247
2021198N21134 2021 44 WP MM IN-FA 2021-07-21 06:00:00 NR 23.8700 127.303 PROVISIONAL 550 525 P_____________ WP092021 23.8700 127.303 -1 6 244
2021198N21134 2021 44 WP MM IN-FA 2021-07-21 09:00:00 NR 23.7421 127.033 PROVISIONAL 525 507 P_____________ WP092021 23.7421 127.033 -1 5 242
2021198N21134 2021 44 WP MM IN-FA 2021-07-21 12:00:00 NR 23.6165 126.783 PROVISIONAL 507 490 P_____________ WP092021 23.6165 126.783 -1 5 241
2021198N21134 2021 44 WP MM IN-FA 2021-07-21 15:00:00 NR 23.5014 126.554 PROVISIONAL 490 473 P_____________ WP092021 23.5014 126.554 -1 5 242
2021198N21134 2021 44 WP MM IN-FA 2021-07-21 18:00:00 NR 23.4048 126.347 PROVISIONAL 463 453 P_____________ WP092021 23.4048 126.347 -1 4 245
2021198N21134 2021 44 WP MM IN-FA 2021-07-21 21:00:00 NR 23.3350 126.162 PROVISIONAL 456 437 P_____________ WP092021 23.3350 126.162 -1 3 252
2021198N21134 2021 44 WP MM IN-FA 2021-07-22 00:00:00 NR 23.3000 126.000 PROVISIONAL 437 427 O_____________ tcvitals WP092021 23.3000 126.000 89 955 2 220 126 150 190 1002 250 12 3 262
2021198N21134 2021 44 WP MM IN-FA 2021-07-22 03:00:00 NR 23.2964 125.855 PROVISIONAL 427 408 P_____________ WP092021 23.2964 125.855 -1 2 275
2021198N21134 2021 44 WP MM IN-FA 2021-07-22 06:00:00 NR 23.3233 125.735 PROVISIONAL 408 395 P_____________ WP092021 23.3233 125.735 -1 2 293
2021198N21134 2021 44 WP MM IN-FA 2021-07-22 09:00:00 NR 23.3801 125.636 PROVISIONAL 395 391 P_____________ WP092021 23.3801 125.636 -1 2 311
2021198N21134 2021 44 WP MM IN-FA 2021-07-22 12:00:00 NR 23.4666 125.553 PROVISIONAL 391 378 P_____________ WP092021 23.4666 125.553 -1 2 325
2021198N21134 2021 44 WP MM IN-FA 2021-07-22 15:00:00 NR 23.5822 125.482 PROVISIONAL 378 366 P_____________ WP092021 23.5822 125.482 -1 3 335
2021198N21134 2021 44 WP MM IN-FA 2021-07-22 18:00:00 NR 23.7266 125.419 PROVISIONAL 366 361 P_____________ WP092021 23.7266 125.419 -1 3 341
2021198N21134 2021 44 WP MM IN-FA 2021-07-22 21:00:00 NR 23.8994 125.360 PROVISIONAL 361 347 P_____________ WP092021 23.8994 125.360 -1 4 343
2021198N21134 2021 44 WP MM IN-FA 2021-07-23 00:00:00 NR 24.1000 125.300 PROVISIONAL 347 332 O_____________ tcvitals WP092021 24.1000 125.300 74 961 1 200 185 185 195 1000 350 35 4 345
2021198N21134 2021 44 WP MM IN-FA 2021-07-23 03:00:00 NR 24.2984 125.242 PROVISIONAL 332 327 P_____________ WP092021 24.2984 125.242 -1 4 346
2021198N21134 2021 44 WP MM IN-FA 2021-07-23 06:00:00 NR 24.5262 125.189 PROVISIONAL 327 313 P_____________ WP092021 24.5262 125.189 -1 5 349
2021198N21134 2021 44 WP MM IN-FA 2021-07-23 09:00:00 NR 24.7813 125.136 PROVISIONAL 313 312 P_____________ WP092021 24.7813 125.136 -1 5 350
2021198N21134 2021 44 WP MM IN-FA 2021-07-23 12:00:00 NR 25.0618 125.078 PROVISIONAL 312 302 P_____________ WP092021 25.0618 125.078 -1 6 349
2021198N21134 2021 44 WP MM IN-FA 2021-07-23 15:00:00 NR 25.3659 125.011 PROVISIONAL 304 298 P_____________ WP092021 25.3659 125.011 -1 6 348
2021198N21134 2021 44 WP MM IN-FA 2021-07-23 18:00:00 NR 25.6916 124.929 PROVISIONAL 301 301 P_____________ WP092021 25.6916 124.929 -1 7 346
2021198N21134 2021 44 WP MM IN-FA 2021-07-23 21:00:00 NR 26.0369 124.827 PROVISIONAL 302 302 P_____________ WP092021 26.0369 124.827 -1 7 344
2021198N21134 2021 44 WP MM IN-FA 2021-07-24 00:00:00 NR 26.4000 124.700 PROVISIONAL 312 309 O_____________ tcvitals WP092021 26.4000 124.700 64 963 1 205 195 185 195 996 260 17 8 341
2021198N21134 2021 44 WP MM IN-FA 2021-07-24 03:00:00 NR 26.8121 124.533 PROVISIONAL 320 301 P_____________ WP092021 26.8121 124.533 -1 9 339
2021198N21134 2021 44 WP MM IN-FA 2021-07-24 06:00:00 NR 27.2510 124.341 PROVISIONAL 287 254 P_____________ WP092021 27.2510 124.341 -1 10 338
2021198N21134 2021 44 WP MM IN-FA 2021-07-24 09:00:00 NR 27.7033 124.128 PROVISIONAL 254 222 P_____________ WP092021 27.7033 124.128 -1 10 336
2021198N21134 2021 44 WP MM IN-FA 2021-07-24 12:00:00 NR 28.1557 123.897 PROVISIONAL 216 178 P_____________ WP092021 28.1557 123.897 -1 10 335
2021198N21134 2021 44 WP MM IN-FA 2021-07-24 15:00:00 NR 28.5948 123.654 PROVISIONAL 178 137 P_____________ WP092021 28.5948 123.654 -1 10 333
2021198N21134 2021 44 WP MM IN-FA 2021-07-24 18:00:00 NR 29.0074 123.404 PROVISIONAL 137 116 P_____________ WP092021 29.0074 123.404 -1 9 331
2021198N21134 2021 44 WP MM IN-FA 2021-07-24 21:00:00 NR 29.3802 123.151 PROVISIONAL 118 97 P_____________ WP092021 29.3802 123.151 -1 8 328
2021198N21134 2021 44 WP MM IN-FA 2021-07-25 00:00:00 NR 29.7000 122.900 PROVISIONAL 97 77 O_____________ tcvitals WP092021 29.7000 122.900 64 968 1 220 195 165 180 998 210 25 7 323
2021198N21134 2021 44 WP MM IN-FA 2021-07-25 03:00:00 NR 29.9264 122.671 PROVISIONAL 77 61 P_____________ WP092021 29.9573 122.656 -1 6 315
2021198N21134 2021 44 WP MM IN-FA 2021-07-25 06:00:00 NR 30.1027 122.442 PROVISIONAL 58 53 P_____________ WP092021 30.1567 122.420 -1 5 308
2021198N21134 2021 44 WP MM IN-FA 2021-07-25 09:00:00 NR 30.2376 122.213 PROVISIONAL 53 49 P_____________ WP092021 30.3065 122.189 -1 5 301
2021198N21134 2021 44 WP MM IN-FA 2021-07-25 12:00:00 NR 30.3399 121.987 PROVISIONAL 49 36 P_____________ WP092021 30.4150 121.965 -1 4 295
2021198N21134 2021 44 WP MM IN-FA 2021-07-25 15:00:00 NR 30.4186 121.762 PROVISIONAL 36 29 P_____________ WP092021 30.4904 121.744 -1 4 290
2021198N21134 2021 44 WP MM IN-FA 2021-07-25 18:00:00 NR 30.4822 121.539 PROVISIONAL 33 24 P_____________ WP092021 30.5409 121.528 -1 4 288
2021198N21134 2021 44 WP MM IN-FA 2021-07-25 21:00:00 NR 30.5398 121.318 PROVISIONAL 24 9 P_____________ WP092021 30.5747 121.313 -1 4 287
2021198N21134 2021 44 WP MM IN-FA 2021-07-26 00:00:00 NR 30.6000 121.100 PROVISIONAL 9 O_____________ tcvitals WP092021 30.6000 121.100 39 988 0 110 130 45 60 994 170 30 4 288

Digital Typhoon Data and Search

About IBTrACS Database

This database is a web-friendly format of International Best Track Archive for Climate Stewardship (IBTrACS), a global best track data archive curated by NOAA dating back to 1842.

Updated: 2022-05-21